createdAt,value
2022-10-14T00:00:34.404Z,13.23
2022-10-14T00:03:01.134Z,13.27
2022-10-14T00:05:28.261Z,12.73
2022-10-14T00:07:55.340Z,12.95
2022-10-14T00:10:22.206Z,14.48
2022-10-14T00:12:50.438Z,13.35
2022-10-14T00:15:17.994Z,13.35
2022-10-14T00:17:44.777Z,12.98
2022-10-14T00:20:11.891Z,12.90
2022-10-14T00:22:38.678Z,12.55
2022-10-14T00:25:05.649Z,13.77
2022-10-14T00:27:32.414Z,14.02
2022-10-14T00:29:59.191Z,13.38
2022-10-14T00:32:25.970Z,12.68
2022-10-14T00:34:52.710Z,13.13
2022-10-14T00:37:19.907Z,13.38
2022-10-14T00:39:46.938Z,14.20
2022-10-14T00:42:15.440Z,12.95
2022-10-14T00:44:44.979Z,15.77
2022-10-14T00:47:12.362Z,15.57
2022-10-14T00:49:42.464Z,14.93
2022-10-14T00:52:15.146Z,14.68
2022-10-14T00:54:48.506Z,15.85
2022-10-14T00:57:15.729Z,15.40
2022-10-14T00:59:42.691Z,15.68
2022-10-14T01:02:09.706Z,14.68
2022-10-14T01:04:39.649Z,15.60
2022-10-14T01:07:35.270Z,14.77
2022-10-14T01:10:08.154Z,12.90
2022-10-14T01:12:59.181Z,14.55
2022-10-14T01:15:44.114Z,14.20
2022-10-14T01:18:26.065Z,13.20
2022-10-14T01:21:15.178Z,13.68
2022-10-14T01:24:02.533Z,13.93
2022-10-14T01:26:50.492Z,13.82
2022-10-14T01:29:42.464Z,13.43
2022-10-14T01:32:33.366Z,13.95
2022-10-14T01:35:11.868Z,13.63
2022-10-14T01:37:46.139Z,14.10
2022-10-14T01:40:21.788Z,14.25
2022-10-14T01:42:49.650Z,14.05
2022-10-14T01:45:20.379Z,13.85
2022-10-14T01:47:50.503Z,15.30
2022-10-14T01:50:20.424Z,13.88
2022-10-14T01:52:56.239Z,13.45
2022-10-14T01:55:28.049Z,15.63
2022-10-14T01:57:57.874Z,15.70
2022-10-14T02:00:24.743Z,16.23
2022-10-14T02:02:51.570Z,14.98
2022-10-14T02:05:31.666Z,15.38
2022-10-14T02:08:07.074Z,17.08
2022-10-14T02:11:15.700Z,18.05
2022-10-14T02:13:47.765Z,18.85
2022-10-14T02:16:20.401Z,17.90
2022-10-14T02:19:03.317Z,16.75
2022-10-14T02:21:42.058Z,17.05
2022-10-14T02:24:29.363Z,20.38
2022-10-14T02:26:58.698Z,20.75
2022-10-14T02:29:26.623Z,23.42
2022-10-14T02:31:54.181Z,23.75
2022-10-14T02:34:24.168Z,23.23
2022-10-14T02:36:52.358Z,24.67
2022-10-14T02:39:31.281Z,24.95
2022-10-14T02:41:58.354Z,22.90
2022-10-14T02:44:25.287Z,24.85
2022-10-14T02:46:54.373Z,24.25
2022-10-14T02:49:21.443Z,20.30
2022-10-14T02:51:48.264Z,16.83
2022-10-14T02:54:15.080Z,18.45
2022-10-14T02:56:41.997Z,19.73
2022-10-14T02:59:08.783Z,21.35
2022-10-14T03:01:37.716Z,19.50
2022-10-14T03:04:04.876Z,20.90
2022-10-14T03:06:31.641Z,20.52
2022-10-14T03:08:58.405Z,18.83
2022-10-14T03:11:25.207Z,19.13
2022-10-14T03:13:51.996Z,19.67
2022-10-14T03:16:19.008Z,18.73
2022-10-14T03:18:45.900Z,19.13
2022-10-14T03:21:12.691Z,18.50
2022-10-14T03:23:39.462Z,19.48
2022-10-14T03:26:08.575Z,19.00
2022-10-14T03:28:38.682Z,17.85
2022-10-14T03:31:05.640Z,20.30
2022-10-14T03:33:33.866Z,18.20
2022-10-14T03:36:00.789Z,15.27
2022-10-14T03:38:28.181Z,15.63
2022-10-14T03:40:54.923Z,15.27
2022-10-14T03:43:21.809Z,15.15
2022-10-14T03:45:48.559Z,15.88
2022-10-14T03:48:15.291Z,15.18
2022-10-14T03:50:42.036Z,15.23
2022-10-14T03:53:08.869Z,13.98
2022-10-14T03:55:35.642Z,14.13
2022-10-14T03:58:02.393Z,12.15
2022-10-14T04:00:29.351Z,14.95
2022-10-14T04:02:56.097Z,13.10
2022-10-14T04:05:22.896Z,14.05
2022-10-14T04:07:49.778Z,13.80
2022-10-14T04:10:16.639Z,14.52
2022-10-14T04:12:44.009Z,14.95
2022-10-14T04:15:10.944Z,14.30
2022-10-14T04:17:37.909Z,12.43
2022-10-14T04:20:05.244Z,13.57
2022-10-14T04:22:33.305Z,13.30
2022-10-14T04:25:00.042Z,12.55
2022-10-14T04:27:27.019Z,12.35
2022-10-14T04:29:53.857Z,12.80
2022-10-14T04:32:20.927Z,13.73
2022-10-14T04:34:47.979Z,12.93
2022-10-14T04:37:14.830Z,13.75
2022-10-14T04:39:41.559Z,13.02
2022-10-14T04:42:08.330Z,14.02
2022-10-14T04:44:35.200Z,13.38
2022-10-14T04:47:01.992Z,13.85
2022-10-14T04:49:28.762Z,13.80
2022-10-14T04:51:55.559Z,15.18
2022-10-14T04:54:22.392Z,14.65
2022-10-14T04:56:49.291Z,14.45
2022-10-14T04:59:16.223Z,16.35
2022-10-14T05:01:43.024Z,17.27
2022-10-14T05:04:09.787Z,18.15
2022-10-14T05:06:37.550Z,19.27
2022-10-14T05:09:06.323Z,21.25
2022-10-14T05:11:33.303Z,20.77
2022-10-14T05:14:00.405Z,19.83
2022-10-14T05:16:27.645Z,20.33
2022-10-14T05:18:54.613Z,21.48
2022-10-14T05:21:21.552Z,19.45
2022-10-14T05:23:48.311Z,20.55
2022-10-14T05:26:15.094Z,18.90
2022-10-14T05:28:42.548Z,19.30
2022-10-14T05:31:09.378Z,19.25
2022-10-14T05:33:36.514Z,18.85
2022-10-14T05:36:03.769Z,19.88
2022-10-14T05:38:34.256Z,19.13
2022-10-14T05:41:01.970Z,19.05
2022-10-14T05:43:32.398Z,19.50
2022-10-14T05:46:00.608Z,19.60
2022-10-14T05:48:27.396Z,18.45
2022-10-14T05:50:54.216Z,18.75
2022-10-14T05:53:21.023Z,19.40
2022-10-14T05:55:48.716Z,19.38
2022-10-14T05:58:15.665Z,19.52
2022-10-14T06:00:42.430Z,19.48
2022-10-14T06:03:11.864Z,20.50
2022-10-14T06:05:38.723Z,20.20
2022-10-14T06:08:06.222Z,20.52
2022-10-14T06:10:34.336Z,21.08
2022-10-14T06:13:01.200Z,19.63
2022-10-14T06:15:28.442Z,21.95
2022-10-14T06:17:55.345Z,25.70
2022-10-14T06:20:22.105Z,24.95
2022-10-14T06:22:48.812Z,23.42
2022-10-14T06:25:15.676Z,24.65
2022-10-14T06:27:42.628Z,23.67
2022-10-14T06:30:10.127Z,24.45
2022-10-14T06:32:36.922Z,23.75
2022-10-14T06:35:04.491Z,22.67
2022-10-14T06:37:31.303Z,24.88
2022-10-14T06:39:58.032Z,23.20
2022-10-14T06:42:25.176Z,23.95
2022-10-14T06:44:52.161Z,22.50
2022-10-14T06:47:18.949Z,22.42
2022-10-14T06:49:45.815Z,22.90
2022-10-14T06:52:12.628Z,23.45
2022-10-14T06:54:45.927Z,22.83
2022-10-14T06:57:15.334Z,23.92
2022-10-14T06:59:42.187Z,23.83
2022-10-14T07:02:09.844Z,21.83
2022-10-14T07:04:36.653Z,22.90
2022-10-14T07:07:03.423Z,21.05
2022-10-14T07:09:30.252Z,21.05
2022-10-14T07:11:57.038Z,19.15
2022-10-14T07:14:23.894Z,17.88
2022-10-14T07:16:50.834Z,17.80
2022-10-14T07:19:17.647Z,16.67
2022-10-14T07:21:46.625Z,18.55
2022-10-14T07:24:13.663Z,17.25
2022-10-14T07:26:40.564Z,16.63
2022-10-14T07:29:10.088Z,15.80
2022-10-14T07:31:36.971Z,15.25
2022-10-14T07:34:03.832Z,14.93
2022-10-14T07:36:30.725Z,16.33
2022-10-14T07:38:57.501Z,15.25
2022-10-14T07:41:25.554Z,15.13
2022-10-14T07:43:55.324Z,13.55
2022-10-14T07:46:32.385Z,13.68
2022-10-14T07:49:02.746Z,14.27
2022-10-14T07:51:29.501Z,12.60
2022-10-14T07:53:58.397Z,11.73
2022-10-14T07:56:25.630Z,12.02
2022-10-14T07:58:53.300Z,11.13
2022-10-14T08:01:20.439Z,10.13
2022-10-14T08:03:48.523Z,10.60
2022-10-14T08:06:15.644Z,9.52
2022-10-14T08:08:44.056Z,9.55
2022-10-14T08:11:17.625Z,9.20
2022-10-14T08:13:46.314Z,10.10
2022-10-14T08:16:25.931Z,10.10
2022-10-14T08:18:53.113Z,9.00
2022-10-14T08:21:21.119Z,8.57
2022-10-14T08:23:48.377Z,9.02
2022-10-14T08:26:35.575Z,8.60
2022-10-14T08:29:05.609Z,9.13
2022-10-14T08:31:32.966Z,9.00
2022-10-14T08:34:00.036Z,8.82
2022-10-14T08:36:27.293Z,8.02
2022-10-14T08:38:54.972Z,8.40
2022-10-14T08:41:33.968Z,8.35
2022-10-14T08:44:14.925Z,8.32
2022-10-14T08:46:58.555Z,8.02
2022-10-14T08:49:46.943Z,8.13
2022-10-14T08:52:34.975Z,8.85
2022-10-14T08:55:27.191Z,7.05
2022-10-14T08:58:15.638Z,6.90
2022-10-14T09:00:45.823Z,7.47
2022-10-14T09:03:33.261Z,7.68
2022-10-14T09:06:18.568Z,6.00
2022-10-14T09:08:48.775Z,6.45
2022-10-14T09:11:18.527Z,6.75
2022-10-14T09:13:57.588Z,6.32
2022-10-14T09:16:31.316Z,6.05
2022-10-14T09:19:03.946Z,5.47
2022-10-14T09:21:40.553Z,4.97
2022-10-14T09:24:32.548Z,3.75
2022-10-14T09:27:04.955Z,4.30
2022-10-14T09:29:46.639Z,4.78
2022-10-14T09:32:20.744Z,5.10
2022-10-14T09:34:52.285Z,5.57
2022-10-14T09:37:29.003Z,4.93
2022-10-14T09:40:23.125Z,4.97
2022-10-14T09:42:58.639Z,5.45
2022-10-14T09:45:27.822Z,4.53
2022-10-14T09:48:03.951Z,5.07
2022-10-14T09:50:41.228Z,4.85
2022-10-14T09:53:17.056Z,5.00
2022-10-14T09:58:42.355Z,4.28
2022-10-14T10:01:16.053Z,3.88
2022-10-14T10:03:45.953Z,3.70
2022-10-14T10:06:15.330Z,4.00
2022-10-14T10:09:00.857Z,4.63
2022-10-14T10:11:38.981Z,5.03
2022-10-14T10:14:27.126Z,4.63
2022-10-14T10:17:09.837Z,3.65
2022-10-14T10:19:45.277Z,3.80
2022-10-14T10:22:24.233Z,4.47
2022-10-14T10:25:01.302Z,4.30
2022-10-14T10:27:34.752Z,3.83
2022-10-14T10:30:17.966Z,3.80
2022-10-14T10:32:54.899Z,3.72
2022-10-14T10:35:55.281Z,3.70
2022-10-14T10:38:30.957Z,4.55
2022-10-14T10:41:09.827Z,3.50
2022-10-14T10:44:04.769Z,3.38
2022-10-14T10:47:15.021Z,4.43
2022-10-14T10:50:10.219Z,3.75
2022-10-14T10:53:14.352Z,3.60
2022-10-14T10:55:59.845Z,3.28
2022-10-14T10:58:41.716Z,3.58
2022-10-14T11:01:16.708Z,3.38
2022-10-14T11:04:10.618Z,3.85
2022-10-14T11:07:27.175Z,3.65
2022-10-14T11:10:24.971Z,3.05
2022-10-14T11:13:00.095Z,4.85
2022-10-14T11:15:46.899Z,4.15
2022-10-14T11:18:48.393Z,4.68
2022-10-14T11:21:47.091Z,5.10
2022-10-14T11:24:18.551Z,5.38
2022-10-14T11:27:00.370Z,6.00
2022-10-14T11:29:38.270Z,5.03
2022-10-14T11:32:20.286Z,5.15
2022-10-14T11:34:55.827Z,4.75
2022-10-14T11:37:29.496Z,5.03
2022-10-14T11:40:01.715Z,4.78
2022-10-14T11:42:47.195Z,3.83
2022-10-14T11:45:20.316Z,5.27
2022-10-14T11:47:51.572Z,4.90
2022-10-14T11:50:31.676Z,4.75
2022-10-14T11:53:05.231Z,4.30
2022-10-14T11:55:44.155Z,3.83
2022-10-14T11:58:18.399Z,4.03
2022-10-14T12:01:00.126Z,4.03
2022-10-14T12:03:46.971Z,4.30
2022-10-14T12:06:19.304Z,4.70
2022-10-14T12:08:50.235Z,3.17
2022-10-14T12:11:25.597Z,4.10
2022-10-14T12:13:59.883Z,4.38
2022-10-14T12:16:26.829Z,5.00
2022-10-14T12:18:56.784Z,4.90
2022-10-14T12:21:49.690Z,4.70
2022-10-14T12:24:21.240Z,4.72
2022-10-14T12:26:57.298Z,4.00
2022-10-14T12:29:28.442Z,4.13
2022-10-14T12:32:04.062Z,4.07
2022-10-14T12:34:37.904Z,4.03
2022-10-14T12:37:31.721Z,4.38
2022-10-14T12:40:07.401Z,4.22
2022-10-14T12:42:57.861Z,4.72
2022-10-14T12:45:27.722Z,4.25
2022-10-14T12:48:12.893Z,4.07
2022-10-14T12:50:47.595Z,4.93
2022-10-14T12:53:21.555Z,5.03
2022-10-14T12:55:54.790Z,3.83
2022-10-14T12:58:36.429Z,3.97
2022-10-14T13:01:17.678Z,4.05
2022-10-14T13:03:53.659Z,4.05
2022-10-14T13:06:36.005Z,4.22
2022-10-14T13:09:11.858Z,4.40
2022-10-14T13:14:27.365Z,3.63
2022-10-14T13:16:56.834Z,3.72
2022-10-14T13:19:33.102Z,4.30
2022-10-14T13:22:28.441Z,4.38
2022-10-14T13:25:12.369Z,4.20
2022-10-14T13:28:00.197Z,4.30
2022-10-14T13:30:50.521Z,4.55
2022-10-14T13:33:33.679Z,4.07
2022-10-14T13:36:32.512Z,4.15
2022-10-14T13:39:01.344Z,4.90
2022-10-14T13:41:31.415Z,4.30
2022-10-14T13:44:00.806Z,3.80
2022-10-14T13:46:45.051Z,4.55
2022-10-14T13:49:23.405Z,4.00
2022-10-14T13:51:59.502Z,4.18
2022-10-14T13:54:28.356Z,5.53
2022-10-14T13:57:34.711Z,4.55
2022-10-14T14:02:36.411Z,4.30
2022-10-14T14:05:03.436Z,3.97
2022-10-14T14:08:08.095Z,4.22
2022-10-14T14:10:24.742Z,5.05
2022-10-14T14:12:51.949Z,3.92
2022-10-14T14:15:26.551Z,4.13
2022-10-14T14:17:53.914Z,4.10
2022-10-14T14:20:28.737Z,3.95
2022-10-14T14:22:58.076Z,4.18
2022-10-14T14:25:36.744Z,3.67
2022-10-14T14:28:08.096Z,4.03
2022-10-14T14:30:37.001Z,3.85
2022-10-14T14:33:18.127Z,3.90
2022-10-14T14:35:55.797Z,4.70
2022-10-14T14:38:31.409Z,3.85
2022-10-14T14:41:25.292Z,3.40
2022-10-14T14:44:13.596Z,3.83
2022-10-14T14:46:45.007Z,4.38
2022-10-14T14:49:22.329Z,4.80
2022-10-14T14:51:50.162Z,3.97
2022-10-14T14:54:21.830Z,4.63
2022-10-14T14:56:56.833Z,5.03
2022-10-14T14:59:23.876Z,4.17
2022-10-14T15:01:50.841Z,3.85
2022-10-14T15:04:20.581Z,4.63
2022-10-14T15:07:12.165Z,4.55
2022-10-14T15:09:44.879Z,4.45
2022-10-14T15:12:17.897Z,5.10
2022-10-14T15:14:51.721Z,4.70
2022-10-14T15:17:35.195Z,4.95
2022-10-14T15:20:05.224Z,5.38
2022-10-14T15:22:33.914Z,5.47
2022-10-14T15:25:05.640Z,6.28
2022-10-14T15:27:35.441Z,6.03
2022-10-14T15:30:36.387Z,5.95
2022-10-14T15:33:17.284Z,5.68
2022-10-14T15:35:45.639Z,6.10
2022-10-14T15:38:18.335Z,6.50
2022-10-14T15:40:47.282Z,6.40
2022-10-14T15:43:17.737Z,6.90
2022-10-14T15:45:47.354Z,6.72
2022-10-14T15:48:19.847Z,6.75
2022-10-14T15:50:48.302Z,7.13
2022-10-14T15:53:17.299Z,7.07
2022-10-14T15:55:44.203Z,6.68
2022-10-14T15:58:10.970Z,7.10
2022-10-14T16:00:37.761Z,7.35
2022-10-14T16:03:04.867Z,6.68
2022-10-14T16:05:31.849Z,7.40
2022-10-14T16:07:58.787Z,6.32
2022-10-14T16:10:29.245Z,6.47
2022-10-14T16:12:58.826Z,7.63
2022-10-14T16:15:57.900Z,6.85
2022-10-14T16:18:25.818Z,7.20
2022-10-14T16:20:52.828Z,7.10
2022-10-14T16:23:26.191Z,7.20
2022-10-14T16:25:55.155Z,6.45
2022-10-14T16:28:21.947Z,7.32
2022-10-14T16:30:49.401Z,8.25
2022-10-14T16:33:17.842Z,7.18
2022-10-14T16:35:48.886Z,6.60
2022-10-14T16:38:15.758Z,7.10
2022-10-14T16:40:42.796Z,6.90
2022-10-14T16:43:10.139Z,7.07
2022-10-14T16:45:36.978Z,7.38
2022-10-14T16:48:04.088Z,8.07
2022-10-14T16:50:31.003Z,7.07
2022-10-14T16:53:16.628Z,7.80
2022-10-14T16:55:43.372Z,8.55
2022-10-14T16:58:10.100Z,8.55
2022-10-14T17:00:36.870Z,8.15
2022-10-14T17:03:03.687Z,8.13
2022-10-14T17:05:30.507Z,8.43
2022-10-14T17:07:57.338Z,8.68
2022-10-14T17:10:24.734Z,7.30
2022-10-14T17:12:51.949Z,7.53
2022-10-14T17:15:18.867Z,8.02
2022-10-14T17:17:45.702Z,8.48
2022-10-14T17:20:12.453Z,8.23
2022-10-14T17:22:39.275Z,9.55
2022-10-14T17:25:07.473Z,8.55
2022-10-14T17:27:34.231Z,8.82
2022-10-14T17:30:01.037Z,8.70
2022-10-14T17:32:28.266Z,9.68
2022-10-14T17:34:55.156Z,9.23
2022-10-14T17:37:22.540Z,9.70
2022-10-14T17:39:52.250Z,9.27
2022-10-14T17:42:19.041Z,9.05
2022-10-14T17:44:45.809Z,9.00
2022-10-14T17:47:12.535Z,8.90
2022-10-14T17:49:41.017Z,8.60
2022-10-14T17:52:07.757Z,8.82
2022-10-14T17:54:34.489Z,7.20
2022-10-14T17:57:01.214Z,8.20
2022-10-14T17:59:28.034Z,7.93
2022-10-14T18:02:02.545Z,8.77
2022-10-14T18:04:30.342Z,9.18
2022-10-14T18:06:58.546Z,9.35
2022-10-14T18:09:25.312Z,10.32
2022-10-14T18:12:09.323Z,9.18
2022-10-14T18:14:37.301Z,10.82
2022-10-14T18:17:05.236Z,10.30
2022-10-14T18:19:32.449Z,11.27
2022-10-14T18:22:00.166Z,11.07
2022-10-14T18:24:27.058Z,11.13
2022-10-14T18:26:53.854Z,10.10
2022-10-14T18:29:20.730Z,9.70
2022-10-14T18:34:27.234Z,9.52
2022-10-14T18:36:54.097Z,9.60
2022-10-14T18:39:21.013Z,9.70
2022-10-14T18:41:47.862Z,8.73
2022-10-14T18:44:15.208Z,9.35
2022-10-14T18:46:41.943Z,9.98
2022-10-14T18:49:11.198Z,10.02
2022-10-14T18:51:40.280Z,9.35
2022-10-14T18:54:16.244Z,9.90
2022-10-14T18:59:13.979Z,9.40
2022-10-14T19:01:41.915Z,9.50
2022-10-14T19:04:13.045Z,10.25
2022-10-14T19:06:40.321Z,9.75
2022-10-14T19:09:12.302Z,10.27
2022-10-14T19:11:39.559Z,9.98
2022-10-14T19:14:06.417Z,9.52
2022-10-14T19:16:38.664Z,9.68
2022-10-14T19:19:18.101Z,8.13
2022-10-14T19:21:47.649Z,8.70
2022-10-14T19:24:14.961Z,8.52
2022-10-14T19:26:44.851Z,8.50
2022-10-14T19:29:13.846Z,9.20
2022-10-14T19:31:41.268Z,9.63
2022-10-14T19:34:11.976Z,9.27
2022-10-14T19:36:39.922Z,8.23
2022-10-14T19:39:08.988Z,8.77
2022-10-14T19:41:42.774Z,8.00
2022-10-14T19:44:10.654Z,7.65
2022-10-14T19:46:37.871Z,6.32
2022-10-14T19:49:04.949Z,7.50
2022-10-14T19:51:32.896Z,6.43
2022-10-14T19:53:59.735Z,7.20
2022-10-14T19:56:27.646Z,7.57
2022-10-14T19:58:56.951Z,6.68
2022-10-14T20:01:25.873Z,7.68
2022-10-14T20:03:53.529Z,7.45
2022-10-14T20:06:21.502Z,7.35
2022-10-14T20:08:48.373Z,7.65
2022-10-14T20:11:17.919Z,7.10
2022-10-14T20:13:45.148Z,7.18
2022-10-14T20:16:13.014Z,8.13
2022-10-14T20:18:40.352Z,6.88
2022-10-14T20:21:08.120Z,7.30
2022-10-14T20:23:36.554Z,7.10
2022-10-14T20:26:09.067Z,7.20
2022-10-14T20:28:37.300Z,7.40
2022-10-14T20:31:09.036Z,7.07
2022-10-14T20:33:36.484Z,7.40
2022-10-14T20:36:10.889Z,6.97
2022-10-14T20:38:39.033Z,7.55
2022-10-14T20:41:12.966Z,7.55
2022-10-14T20:43:41.029Z,7.18
2022-10-14T20:46:07.819Z,7.15
2022-10-14T20:48:34.679Z,7.28
2022-10-14T20:51:05.619Z,5.75
2022-10-14T20:53:32.614Z,6.50
2022-10-14T20:56:04.597Z,6.50
2022-10-14T20:58:31.414Z,6.85
2022-10-14T21:01:28.142Z,6.65
2022-10-14T21:03:55.386Z,7.22
2022-10-14T21:06:24.353Z,7.38
2022-10-14T21:08:52.391Z,7.47
2022-10-14T21:11:24.275Z,7.22
2022-10-14T21:13:53.468Z,6.95
2022-10-14T21:16:26.620Z,7.30
2022-10-14T21:18:59.139Z,6.93
2022-10-14T21:21:28.474Z,7.97
2022-10-14T21:23:56.511Z,7.55
2022-10-14T21:26:23.761Z,7.65
2022-10-14T21:28:50.500Z,7.82
2022-10-14T21:31:19.264Z,8.65
2022-10-14T21:33:47.826Z,7.70
2022-10-14T21:36:16.571Z,8.18
2022-10-14T21:38:43.558Z,8.05
2022-10-14T21:41:11.240Z,8.70
2022-10-14T21:43:38.710Z,7.68
2022-10-14T21:46:14.581Z,7.18
2022-10-14T21:48:43.381Z,6.55
2022-10-14T21:51:14.577Z,6.35
2022-10-14T21:53:42.884Z,6.22
2022-10-14T21:56:11.093Z,6.60
2022-10-14T21:58:38.208Z,6.00
2022-10-14T22:01:11.075Z,5.90
2022-10-14T22:03:38.870Z,6.43
2022-10-14T22:06:08.908Z,5.65
2022-10-14T22:08:39.139Z,5.32
2022-10-14T22:11:07.638Z,5.85
2022-10-14T22:13:35.563Z,5.00
2022-10-14T22:16:02.424Z,5.00
2022-10-14T22:18:29.229Z,4.63
2022-10-14T22:21:07.323Z,4.90
2022-10-14T22:23:34.089Z,4.85
2022-10-14T22:26:04.742Z,3.78
2022-10-14T22:28:32.044Z,4.70
2022-10-14T22:31:16.666Z,3.97
2022-10-14T22:33:43.911Z,4.28
2022-10-14T22:36:19.508Z,4.90
2022-10-14T22:38:50.914Z,5.05
2022-10-14T22:41:18.549Z,3.88
2022-10-14T22:44:04.900Z,4.00
2022-10-14T22:46:33.762Z,4.20
2022-10-14T22:49:02.116Z,3.50
2022-10-14T22:51:32.262Z,3.90
2022-10-14T22:53:59.675Z,3.45
2022-10-14T22:56:28.047Z,3.65
2022-10-14T22:59:03.856Z,3.78
2022-10-14T23:01:31.066Z,3.70
2022-10-14T23:03:59.200Z,3.95
2022-10-14T23:06:27.555Z,3.70
2022-10-14T23:08:54.696Z,3.30
2022-10-14T23:11:23.333Z,3.78
2022-10-14T23:13:50.558Z,3.88
2022-10-14T23:16:23.216Z,3.78
2022-10-14T23:18:50.642Z,3.85
2022-10-14T23:21:28.898Z,4.00
2022-10-14T23:23:57.663Z,3.53
2022-10-14T23:26:26.784Z,3.90
2022-10-14T23:28:55.932Z,3.50
2022-10-14T23:31:24.930Z,3.78
2022-10-14T23:33:52.460Z,3.28
2022-10-14T23:36:20.412Z,3.58
2022-10-14T23:38:47.997Z,3.40
2022-10-14T23:41:15.289Z,3.03
2022-10-14T23:43:42.778Z,3.30
2022-10-14T23:46:10.009Z,3.22
2022-10-14T23:48:36.948Z,3.13
2022-10-14T23:51:04.381Z,3.17
2022-10-14T23:53:31.467Z,3.33
2022-10-14T23:55:58.571Z,3.72
2022-10-14T23:58:28.398Z,3.30
